createdAt,value
2022-09-12T00:02:06.159Z,100849.97
2022-09-12T00:04:32.921Z,100846.13
2022-09-12T00:06:59.911Z,100840.41
2022-09-12T00:09:26.733Z,100832.41
2022-09-12T00:11:53.550Z,100837.81
2022-09-12T00:14:21.479Z,100832.47
2022-09-12T00:16:48.387Z,100836.22
2022-09-12T00:19:15.566Z,100829.69
2022-09-12T00:21:45.752Z,100832.91
2022-09-12T00:24:12.788Z,100832.75
2022-09-12T00:26:39.759Z,100831.41
2022-09-12T00:29:06.931Z,100828.84
2022-09-12T00:31:34.169Z,100833.09
2022-09-12T00:34:02.256Z,100829.78
2022-09-12T00:36:30.541Z,100829.84
2022-09-12T00:38:57.685Z,100824.53
2022-09-12T00:41:33.907Z,100825.25
2022-09-12T00:44:06.123Z,100826.03
2022-09-12T00:46:36.305Z,100820.03
2022-09-12T00:49:13.736Z,100821.31
2022-09-12T00:51:47.003Z,100827.16
2022-09-12T00:54:19.365Z,100827.22
2022-09-12T00:56:51.314Z,100830.47
2022-09-12T00:59:22.833Z,100826.19
2022-09-12T01:01:52.112Z,100827.84
2022-09-12T01:04:22.162Z,100818.47
2022-09-12T01:06:50.426Z,100830.31
2022-09-12T01:09:20.869Z,100830.31
2022-09-12T01:11:49.658Z,100833.44
2022-09-12T01:14:20.481Z,100828.81
2022-09-12T01:16:49.388Z,100818.91
2022-09-12T01:19:53.740Z,100825.25
2022-09-12T01:22:59.788Z,100822.72
2022-09-12T01:25:45.812Z,100822.38
2022-09-12T01:28:42.998Z,100817.81
2022-09-12T01:31:54.463Z,100815.03
2022-09-12T01:34:28.300Z,100824.88
2022-09-12T01:37:34.408Z,100816.00
2022-09-12T01:40:07.357Z,100816.88
2022-09-12T01:42:56.754Z,100810.78
2022-09-12T01:45:39.166Z,100811.47
2022-09-12T01:48:20.732Z,100814.97
2022-09-12T01:50:56.054Z,100815.75
2022-09-12T01:53:27.821Z,100812.09
2022-09-12T01:56:01.145Z,100812.00
2022-09-12T01:58:42.127Z,100811.06
2022-09-12T02:01:22.308Z,100811.16
2022-09-12T02:04:01.162Z,100811.47
2022-09-12T02:06:44.378Z,100803.66
2022-09-12T02:09:26.076Z,100800.97
2022-09-12T02:11:58.066Z,100805.72
2022-09-12T02:14:29.636Z,100815.69
2022-09-12T02:17:04.520Z,100808.00
2022-09-12T02:19:37.719Z,100812.75
2022-09-12T02:22:06.563Z,100807.38
2022-09-12T02:24:40.685Z,100809.00
2022-09-12T02:27:15.527Z,100799.75
2022-09-12T02:29:45.083Z,100797.38
2022-09-12T02:32:44.579Z,100805.69
2022-09-12T02:35:22.654Z,100807.50
2022-09-12T02:37:52.455Z,100803.44
2022-09-12T02:40:19.672Z,100799.28
2022-09-12T02:42:46.528Z,100799.66
2022-09-12T02:45:14.385Z,100792.13
2022-09-12T02:47:49.405Z,100801.84
2022-09-12T02:50:17.180Z,100800.47
2022-09-12T02:52:44.244Z,100806.34
2022-09-12T02:55:15.043Z,100800.34
2022-09-12T02:57:41.836Z,100809.22
2022-09-12T03:00:09.258Z,100805.56
2022-09-12T03:02:36.238Z,100809.03
2022-09-12T03:05:21.543Z,100811.34
2022-09-12T03:08:12.621Z,100810.66
2022-09-12T03:10:57.344Z,100820.47
2022-09-12T03:13:40.564Z,100808.34
2022-09-12T03:16:10.020Z,100809.41
2022-09-12T03:19:06.419Z,100812.78
2022-09-12T03:22:07.370Z,100810.72
2022-09-12T03:24:46.995Z,100805.06
2022-09-12T03:27:30.324Z,100803.47
2022-09-12T03:29:57.957Z,100807.03
2022-09-12T03:32:41.133Z,100807.75
2022-09-12T03:35:08.186Z,100810.63
2022-09-12T03:37:35.270Z,100816.38
2022-09-12T03:40:04.104Z,100821.59
2022-09-12T03:42:31.126Z,100821.19
2022-09-12T03:44:58.071Z,100815.50
2022-09-12T03:47:25.171Z,100816.28
2022-09-12T03:49:52.796Z,100819.31
2022-09-12T03:52:20.094Z,100815.13
2022-09-12T03:54:47.096Z,100824.44
2022-09-12T03:57:14.018Z,100827.97
2022-09-12T03:59:40.907Z,100824.94
2022-09-12T04:02:08.000Z,100834.03
2022-09-12T04:04:34.787Z,100832.31
2022-09-12T04:07:01.783Z,100832.88
2022-09-12T04:09:28.490Z,100840.16
2022-09-12T04:11:55.549Z,100839.53
2022-09-12T04:14:22.271Z,100841.44
2022-09-12T04:16:49.294Z,100842.13
2022-09-12T04:19:16.036Z,100840.31
2022-09-12T04:21:43.192Z,100839.69
2022-09-12T04:24:09.917Z,100838.75
2022-09-12T04:26:36.812Z,100835.41
2022-09-12T04:29:03.999Z,100832.72
2022-09-12T04:31:30.870Z,100834.22
2022-09-12T04:33:59.806Z,100830.19
2022-09-12T04:36:28.779Z,100836.63
2022-09-12T04:38:56.245Z,100828.84
2022-09-12T04:41:28.632Z,100829.13
2022-09-12T04:44:02.578Z,100825.28
2022-09-12T04:46:31.672Z,100823.22
2022-09-12T04:48:58.748Z,100824.78
2022-09-12T04:51:28.624Z,100823.78
2022-09-12T04:53:58.124Z,100830.66
2022-09-12T04:56:25.970Z,100829.69
2022-09-12T04:58:52.729Z,100835.94
2022-09-12T05:01:21.831Z,100832.72
2022-09-12T05:03:49.971Z,100831.84
2022-09-12T05:06:31.766Z,100828.41
2022-09-12T05:09:00.191Z,100832.47
2022-09-12T05:11:46.864Z,100834.03
2022-09-12T05:14:17.293Z,100838.91
2022-09-12T05:16:47.294Z,100842.34
2022-09-12T05:19:15.847Z,100848.53
2022-09-12T05:21:42.694Z,100841.22
2022-09-12T05:24:11.363Z,100844.78
2022-09-12T05:26:38.899Z,100844.09
2022-09-12T05:29:07.244Z,100841.94
2022-09-12T05:31:35.137Z,100845.38
2022-09-12T05:34:07.250Z,100843.78
2022-09-12T05:36:34.314Z,100846.56
2022-09-12T05:39:01.394Z,100849.19
2022-09-12T05:41:30.968Z,100847.19
2022-09-12T05:44:04.362Z,100851.22
2022-09-12T05:46:40.137Z,100847.31
2022-09-12T05:49:10.073Z,100841.22
2022-09-12T05:51:39.527Z,100853.56
2022-09-12T05:54:09.157Z,100848.09
2022-09-12T05:56:41.027Z,100848.97
2022-09-12T05:59:18.202Z,100853.88
2022-09-12T06:01:45.759Z,100853.16
2022-09-12T06:04:13.063Z,100853.53
2022-09-12T06:06:45.296Z,100851.78
2022-09-12T06:09:14.478Z,100856.31
2022-09-12T06:11:42.357Z,100848.03
2022-09-12T06:14:11.097Z,100844.66
2022-09-12T06:16:39.112Z,100847.00
2022-09-12T06:19:15.063Z,100860.22
2022-09-12T06:21:42.032Z,100856.56
2022-09-12T06:24:08.793Z,100854.47
2022-09-12T06:26:36.133Z,100859.19
2022-09-12T06:29:03.501Z,100857.84
2022-09-12T06:31:33.706Z,100858.84
2022-09-12T06:34:02.863Z,100860.59
2022-09-12T06:39:11.428Z,100862.38
2022-09-12T06:41:42.974Z,100866.97
2022-09-12T06:44:17.165Z,100866.81
2022-09-12T06:46:44.757Z,100865.56
2022-09-12T06:49:11.978Z,100873.22
2022-09-12T06:51:38.785Z,100874.72
2022-09-12T06:54:05.850Z,100877.75
2022-09-12T06:56:32.670Z,100873.53
2022-09-12T06:59:00.061Z,100872.47
2022-09-12T07:01:29.505Z,100872.81
2022-09-12T07:03:59.588Z,100870.88
2022-09-12T07:06:32.058Z,100877.56
2022-09-12T07:09:01.091Z,100872.38
2022-09-12T07:11:34.240Z,100878.38
2022-09-12T07:14:03.217Z,100879.31
2022-09-12T07:16:30.865Z,100882.31
2022-09-12T07:19:00.191Z,100886.09
2022-09-12T07:21:27.590Z,100882.28
2022-09-12T07:24:00.653Z,100886.03
2022-09-12T07:26:29.383Z,100882.16
2022-09-12T07:29:12.814Z,100884.47
2022-09-12T07:31:45.838Z,100892.41
2022-09-12T07:34:13.052Z,100880.09
2022-09-12T07:36:40.040Z,100886.59
2022-09-12T07:39:07.029Z,100885.94
2022-09-12T07:41:36.843Z,100890.06
2022-09-12T07:44:06.842Z,100895.59
2022-09-12T07:46:34.461Z,100893.81
2022-09-12T07:49:02.361Z,100896.47
2022-09-12T07:51:31.341Z,100906.69
2022-09-12T07:53:58.820Z,100896.69
2022-09-12T07:56:30.220Z,100906.13
2022-09-12T07:58:59.106Z,100898.84
2022-09-12T08:01:26.574Z,100902.94
2022-09-12T08:03:57.083Z,100899.72
2022-09-12T08:06:25.987Z,100902.97
2022-09-12T08:08:55.059Z,100900.00
2022-09-12T08:11:23.697Z,100907.91
2022-09-12T08:13:55.363Z,100912.28
2022-09-12T08:16:25.841Z,100911.09
2022-09-12T08:18:52.792Z,100915.50
2022-09-12T08:21:28.380Z,100908.03
2022-09-12T08:23:58.314Z,100910.38
2022-09-12T08:26:25.437Z,100902.53
2022-09-12T08:28:53.402Z,100904.75
2022-09-12T08:31:21.942Z,100899.34
2022-09-12T08:33:48.985Z,100912.16
2022-09-12T08:36:16.621Z,100916.47
2022-09-12T08:38:45.567Z,100912.16
2022-09-12T08:41:19.201Z,100909.88
2022-09-12T08:44:11.763Z,100908.91
2022-09-12T08:46:57.376Z,100907.84
2022-09-12T08:49:51.770Z,100906.44
2022-09-12T08:52:24.256Z,100903.66
2022-09-12T08:54:51.750Z,100912.19
2022-09-12T08:57:19.331Z,100914.41
2022-09-12T08:59:46.723Z,100903.94
2022-09-12T09:02:38.664Z,100909.53
2022-09-12T09:05:15.572Z,100901.63
2022-09-12T09:08:16.284Z,100902.75
2022-09-12T09:10:53.992Z,100906.19
2022-09-12T09:14:05.064Z,100906.78
2022-09-12T09:16:42.568Z,100905.31
2022-09-12T09:19:37.794Z,100910.41
2022-09-12T09:22:12.180Z,100913.06
2022-09-12T09:24:46.439Z,100906.84
2022-09-12T09:27:41.642Z,100908.13
2022-09-12T09:30:18.418Z,100904.44
2022-09-12T09:32:51.022Z,100899.34
2022-09-12T09:35:27.852Z,100895.59
2022-09-12T09:38:08.845Z,100899.41
2022-09-12T09:40:51.907Z,100902.66
2022-09-12T09:43:23.885Z,100908.03
2022-09-12T09:45:52.221Z,100908.13
2022-09-12T09:48:25.562Z,100900.66
2022-09-12T09:50:53.067Z,100902.56
2022-09-12T09:53:32.090Z,100905.44
2022-09-12T09:56:03.549Z,100910.22
2022-09-12T09:58:35.240Z,100906.06
2022-09-12T10:01:06.063Z,100899.66
2022-09-12T10:03:40.446Z,100894.91
2022-09-12T10:06:23.824Z,100894.75
2022-09-12T10:08:51.211Z,100900.19
2022-09-12T10:11:23.323Z,100882.81
2022-09-12T10:14:00.192Z,100892.88
2022-09-12T10:16:31.827Z,100888.66
2022-09-12T10:19:01.764Z,100884.91
2022-09-12T10:21:36.062Z,100884.88
2022-09-12T10:24:14.568Z,100883.38
2022-09-12T10:26:45.173Z,100881.94
2022-09-12T10:29:24.140Z,100879.97
2022-09-12T10:31:55.073Z,100875.19
2022-09-12T10:34:30.695Z,100874.66
2022-09-12T10:37:26.406Z,100875.75
2022-09-12T10:39:57.203Z,100879.69
2022-09-12T10:42:46.432Z,100875.53
2022-09-12T10:45:20.126Z,100874.44
2022-09-12T10:47:47.305Z,100868.13
2022-09-12T10:50:41.640Z,100864.81
2022-09-12T10:53:20.556Z,100865.44
2022-09-12T10:55:53.517Z,100863.38
2022-09-12T10:58:42.122Z,100860.91
2022-09-12T11:01:41.782Z,100857.97
2022-09-12T11:04:52.086Z,100866.00
2022-09-12T11:07:40.777Z,100861.09
2022-09-12T11:10:10.267Z,100854.81
2022-09-12T11:12:53.226Z,100852.03
2022-09-12T11:15:25.642Z,100853.72
2022-09-12T11:18:07.675Z,100852.28
2022-09-12T11:21:12.626Z,100854.69
2022-09-12T11:23:45.478Z,100845.59
2022-09-12T11:26:15.623Z,100838.91
2022-09-12T11:28:47.094Z,100838.63
2022-09-12T11:31:39.054Z,100836.00
2022-09-12T11:34:10.540Z,100836.75
2022-09-12T11:36:43.290Z,100839.72
2022-09-12T11:39:15.880Z,100834.69
2022-09-12T11:41:48.485Z,100839.53
2022-09-12T11:44:15.189Z,100840.16
2022-09-12T11:46:49.816Z,100827.38
2022-09-12T11:49:35.279Z,100834.19
2022-09-12T11:52:22.834Z,100825.56
2022-09-12T11:55:24.761Z,100828.63
2022-09-12T11:57:57.084Z,100825.91
2022-09-12T12:00:30.085Z,100823.06
2022-09-12T12:03:21.015Z,100821.09
2022-09-12T12:06:02.760Z,100822.69
2022-09-12T12:08:33.412Z,100816.38
2022-09-12T12:11:02.533Z,100817.00
2022-09-12T12:13:34.320Z,100823.03
2022-09-12T12:16:08.534Z,100812.28
2022-09-12T12:18:39.240Z,100812.00
2022-09-12T12:21:37.825Z,100806.97
2022-09-12T12:24:13.255Z,100810.66
2022-09-12T12:26:40.205Z,100806.06
2022-09-12T12:29:13.942Z,100807.63
2022-09-12T12:31:59.324Z,100813.88
2022-09-12T12:34:36.777Z,100806.44
2022-09-12T12:37:19.209Z,100804.97
2022-09-12T12:39:50.013Z,100807.44
2022-09-12T12:42:35.285Z,100800.41
2022-09-12T12:45:04.422Z,100801.13
2022-09-12T12:47:44.733Z,100793.31
2022-09-12T12:50:11.396Z,100797.91
2022-09-12T12:52:56.071Z,100791.19
2022-09-12T12:55:31.377Z,100788.69
2022-09-12T12:58:00.906Z,100796.53
2022-09-12T13:00:32.817Z,100783.19
2022-09-12T13:03:10.594Z,100788.59
2022-09-12T13:05:54.308Z,100781.69
2022-09-12T13:08:21.154Z,100783.00
2022-09-12T13:11:08.127Z,100778.22
2022-09-12T13:13:37.665Z,100779.38
2022-09-12T13:16:04.864Z,100774.38
2022-09-12T13:18:52.091Z,100768.66
2022-09-12T13:21:21.814Z,100768.84
2022-09-12T13:24:03.543Z,100766.03
2022-09-12T13:26:36.121Z,100764.72
2022-09-12T13:29:29.418Z,100763.19
2022-09-12T13:31:59.558Z,100769.53
2022-09-12T13:34:35.374Z,100754.78
2022-09-12T13:37:11.438Z,100750.81
2022-09-12T13:39:47.718Z,100758.50
2022-09-12T13:42:36.034Z,100755.53
2022-09-12T13:45:22.860Z,100754.41
2022-09-12T13:48:00.582Z,100757.09
2022-09-12T13:50:32.292Z,100762.88
2022-09-12T13:53:07.308Z,100761.38
2022-09-12T13:55:43.119Z,100752.25
2022-09-12T13:58:24.053Z,100752.13
2022-09-12T14:01:06.088Z,100754.63
2022-09-12T14:04:00.663Z,100753.66
2022-09-12T14:06:31.701Z,100752.31
2022-09-12T14:09:03.110Z,100759.13
2022-09-12T14:11:35.236Z,100749.91
2022-09-12T14:14:06.543Z,100750.06
2022-09-12T14:16:42.182Z,100747.06
2022-09-12T14:19:12.316Z,100748.03
2022-09-12T14:21:39.270Z,100742.56
2022-09-12T14:24:08.652Z,100738.25
2022-09-12T14:26:42.128Z,100746.84
2022-09-12T14:29:12.609Z,100737.59
2022-09-12T14:31:39.890Z,100736.50
2022-09-12T14:34:12.687Z,100729.75
2022-09-12T14:36:50.232Z,100730.81
2022-09-12T14:39:30.898Z,100735.16
2022-09-12T14:42:21.036Z,100732.41
2022-09-12T14:45:18.523Z,100727.41
2022-09-12T14:47:51.105Z,100730.50
2022-09-12T14:50:22.815Z,100731.56
2022-09-12T14:53:32.836Z,100729.00
2022-09-12T14:56:12.547Z,100723.59
2022-09-12T14:58:41.250Z,100722.13
2022-09-12T15:01:08.323Z,100723.56
2022-09-12T15:03:52.089Z,100722.22
2022-09-12T15:06:36.300Z,100715.78
2022-09-12T15:09:07.432Z,100719.28
2022-09-12T15:11:34.207Z,100717.63
2022-09-12T15:14:21.165Z,100713.03
2022-09-12T15:16:48.009Z,100723.19
2022-09-12T15:19:14.967Z,100708.75
2022-09-12T15:21:41.959Z,100711.19
2022-09-12T15:24:09.331Z,100713.03
2022-09-12T15:26:36.107Z,100715.88
2022-09-12T15:29:03.613Z,100707.34
2022-09-12T15:31:33.531Z,100710.88
2022-09-12T15:34:04.881Z,100701.22
2022-09-12T15:36:31.648Z,100718.53
2022-09-12T15:38:59.025Z,100705.31
2022-09-12T15:41:31.942Z,100707.94
2022-09-12T15:43:59.124Z,100698.91
2022-09-12T15:46:25.952Z,100697.56
2022-09-12T15:48:52.771Z,100705.59
2022-09-12T15:51:22.842Z,100709.34
2022-09-12T15:53:53.464Z,100710.19
2022-09-12T15:56:21.977Z,100705.78
2022-09-12T15:58:58.702Z,100712.19
2022-09-12T16:01:27.111Z,100714.53
2022-09-12T16:03:54.471Z,100714.28
2022-09-12T16:06:24.964Z,100711.22
2022-09-12T16:08:51.898Z,100713.66
2022-09-12T16:11:24.862Z,100710.66
2022-09-12T16:13:55.397Z,100708.97
2022-09-12T16:16:22.654Z,100704.88
2022-09-12T16:18:49.793Z,100705.88
2022-09-12T16:21:16.843Z,100695.38
2022-09-12T16:23:44.950Z,100696.47
2022-09-12T16:26:12.025Z,100695.00
2022-09-12T16:28:39.033Z,100691.13
2022-09-12T16:31:07.971Z,100683.94
2022-09-12T16:33:35.340Z,100687.06
2022-09-12T16:36:06.123Z,100684.84
2022-09-12T16:38:34.081Z,100682.22
2022-09-12T16:41:06.067Z,100685.81
2022-09-12T16:43:33.743Z,100676.66
2022-09-12T16:46:06.804Z,100680.63
2022-09-12T16:48:34.933Z,100672.22
2022-09-12T16:51:05.313Z,100672.72
2022-09-12T16:53:37.306Z,100679.72
2022-09-12T16:56:07.692Z,100671.84
2022-09-12T16:58:42.053Z,100673.94
2022-09-12T17:01:14.596Z,100673.41
2022-09-12T17:03:42.131Z,100677.59
2022-09-12T17:06:14.351Z,100675.13
2022-09-12T17:08:45.720Z,100676.88
2022-09-12T17:11:17.892Z,100668.97
2022-09-12T17:14:04.579Z,100661.53
2022-09-12T17:16:41.082Z,100667.38
2022-09-12T17:19:09.186Z,100661.91
2022-09-12T17:21:36.659Z,100666.19
2022-09-12T17:24:03.992Z,100661.53
2022-09-12T17:26:33.506Z,100663.22
2022-09-12T17:29:00.729Z,100663.03
2022-09-12T17:31:28.132Z,100653.91
2022-09-12T17:33:59.637Z,100662.94
2022-09-12T17:36:27.638Z,100657.81
2022-09-12T17:38:54.461Z,100661.22
2022-09-12T17:41:24.236Z,100666.66
2022-09-12T17:43:55.749Z,100664.09
2022-09-12T17:46:25.436Z,100654.16
2022-09-12T17:48:59.014Z,100658.38
2022-09-12T17:51:30.838Z,100655.56
2022-09-12T17:56:31.008Z,100646.13
2022-09-12T17:58:58.747Z,100645.72
2022-09-12T18:01:45.921Z,100641.38
2022-09-12T18:04:16.679Z,100653.00
2022-09-12T18:06:48.213Z,100648.91
2022-09-12T18:09:21.312Z,100655.94
2022-09-12T18:11:50.320Z,100651.78
2022-09-12T18:14:18.209Z,100650.69
2022-09-12T18:16:46.179Z,100651.19
2022-09-12T18:19:16.760Z,100647.00
2022-09-12T18:21:43.991Z,100636.94
2022-09-12T18:24:11.370Z,100642.16
2022-09-12T18:26:38.634Z,100645.63
2022-09-12T18:29:05.440Z,100648.41
2022-09-12T18:31:32.611Z,100642.03
2022-09-12T18:34:02.775Z,100648.16
2022-09-12T18:36:30.886Z,100647.41
2022-09-12T18:38:59.034Z,100646.78
2022-09-12T18:41:26.775Z,100643.59
2022-09-12T18:43:58.939Z,100655.16
2022-09-12T18:46:30.377Z,100647.47
2022-09-12T18:48:58.774Z,100650.38
2022-09-12T18:51:35.710Z,100652.81
2022-09-12T18:54:08.888Z,100653.72
2022-09-12T18:56:38.749Z,100655.31
2022-09-12T18:59:07.454Z,100651.88
2022-09-12T19:01:36.855Z,100647.34
2022-09-12T19:04:05.091Z,100650.56
2022-09-12T19:06:38.029Z,100647.53
2022-09-12T19:09:09.280Z,100657.91
2022-09-12T19:11:38.619Z,100662.09
2022-09-12T19:14:06.840Z,100654.94
2022-09-12T19:16:33.897Z,100662.38
2022-09-12T19:19:02.586Z,100656.59
2022-09-12T19:21:31.285Z,100650.72
2022-09-12T19:24:00.448Z,100653.47
2022-09-12T19:26:27.998Z,100649.91
2022-09-12T19:28:55.616Z,100645.84
2022-09-12T19:31:23.474Z,100654.41
2022-09-12T19:33:50.714Z,100649.78
2022-09-12T19:36:43.669Z,100657.78
2022-09-12T19:39:09.737Z,100652.97
2022-09-12T19:41:37.060Z,100647.28
2022-09-12T19:44:04.913Z,100642.09
2022-09-12T19:46:32.018Z,100647.31
2022-09-12T19:48:58.848Z,100639.38
2022-09-12T19:51:26.013Z,100637.53
2022-09-12T19:53:55.597Z,100637.59
2022-09-12T19:56:22.347Z,100632.69
2022-09-12T19:58:55.300Z,100633.84
2022-09-12T20:01:25.897Z,100639.06
2022-09-12T20:03:54.052Z,100637.31
2022-09-12T20:06:24.931Z,100633.44
2022-09-12T20:08:51.807Z,100628.16
2022-09-12T20:11:23.886Z,100619.47
2022-09-12T20:13:51.485Z,100626.69
2022-09-12T20:16:25.422Z,100614.91
2022-09-12T20:19:00.463Z,100624.94
2022-09-12T20:21:33.046Z,100614.22
2022-09-12T20:24:14.216Z,100617.22
2022-09-12T20:26:41.134Z,100619.78
2022-09-12T20:29:08.945Z,100620.84
2022-09-12T20:31:37.866Z,100613.22
2022-09-12T20:34:07.983Z,100614.19
2022-09-12T20:36:34.729Z,100618.72
2022-09-12T20:39:02.624Z,100614.75
2022-09-12T20:41:32.204Z,100609.47
2022-09-12T20:43:59.511Z,100609.66
2022-09-12T20:46:27.523Z,100609.94
2022-09-12T20:48:54.809Z,100615.59
2022-09-12T20:51:22.260Z,100614.72
2022-09-12T20:53:53.382Z,100607.38
2022-09-12T20:56:20.793Z,100610.59
2022-09-12T20:58:47.583Z,100606.50
2022-09-12T21:01:16.076Z,100610.97
2022-09-12T21:03:44.097Z,100608.38
2022-09-12T21:06:17.029Z,100610.88
2022-09-12T21:08:44.484Z,100607.84
2022-09-12T21:11:11.612Z,100608.38
2022-09-12T21:13:39.086Z,100607.25
2022-09-12T21:16:10.684Z,100599.69
2022-09-12T21:18:38.326Z,100598.63
2022-09-12T21:21:06.067Z,100601.16
2022-09-12T21:23:33.751Z,100598.97
2022-09-12T21:26:01.556Z,100599.25
2022-09-12T21:28:28.689Z,100600.47
2022-09-12T21:30:56.126Z,100599.41
2022-09-12T21:33:24.179Z,100594.81
2022-09-12T21:35:50.956Z,100590.66
2022-09-12T21:38:19.183Z,100592.75
2022-09-12T21:40:47.188Z,100594.56
2022-09-12T21:43:14.517Z,100587.34
2022-09-12T21:45:41.259Z,100589.25
2022-09-12T21:48:08.058Z,100591.47
2022-09-12T21:50:34.826Z,100586.13
2022-09-12T21:53:01.609Z,100591.69
2022-09-12T21:55:28.382Z,100580.56
2022-09-12T21:57:55.629Z,100588.91
2022-09-12T22:00:22.675Z,100577.19
2022-09-12T22:02:49.665Z,100577.00
2022-09-12T22:05:17.457Z,100564.66
2022-09-12T22:07:44.639Z,100557.78
2022-09-12T22:10:11.458Z,100562.16
2022-09-12T22:12:40.759Z,100561.38
2022-09-12T22:15:36.389Z,100551.09
2022-09-12T22:17:57.176Z,100548.91
2022-09-12T22:20:23.898Z,100550.03
2022-09-12T22:23:09.064Z,100556.66
2022-09-12T22:25:35.958Z,100551.47
2022-09-12T22:28:02.686Z,100556.56
2022-09-12T22:30:29.521Z,100545.38
2022-09-12T22:32:56.287Z,100547.47
2022-09-12T22:35:23.105Z,100547.88
2022-09-12T22:37:49.888Z,100546.13
2022-09-12T22:40:16.966Z,100544.94
2022-09-12T22:42:43.741Z,100542.66
2022-09-12T22:45:10.778Z,100542.38
2022-09-12T22:47:37.584Z,100540.75
2022-09-12T22:50:04.835Z,100536.41
2022-09-12T22:52:31.518Z,100528.22
2022-09-12T22:54:58.969Z,100531.22
2022-09-12T22:57:25.808Z,100520.09
2022-09-12T22:59:52.518Z,100519.66
2022-09-12T23:02:19.208Z,100524.41
2022-09-12T23:04:46.864Z,100516.25
2022-09-12T23:07:13.682Z,100515.38
2022-09-12T23:09:40.523Z,100513.63
2022-09-12T23:12:07.478Z,100514.19
2022-09-12T23:14:34.325Z,100516.19
2022-09-12T23:17:01.155Z,100514.72
2022-09-12T23:19:27.890Z,100515.97
2022-09-12T23:21:54.637Z,100509.56
2022-09-12T23:24:21.453Z,100503.38
2022-09-12T23:26:48.169Z,100494.97
2022-09-12T23:29:15.448Z,100502.16
2022-09-12T23:31:42.314Z,100502.03
2022-09-12T23:34:10.493Z,100498.53
2022-09-12T23:36:37.235Z,100497.75
2022-09-12T23:39:04.819Z,100490.59
2022-09-12T23:41:31.938Z,100486.22
2022-09-12T23:43:58.993Z,100486.09
2022-09-12T23:46:25.765Z,100494.75
2022-09-12T23:48:55.665Z,100490.63
2022-09-12T23:51:22.406Z,100488.56
2022-09-12T23:53:49.626Z,100489.22
2022-09-12T23:56:16.443Z,100488.69
2022-09-12T23:58:43.231Z,100485.81
